createdAt,value
2018-09-12T00:02:13.346Z,101223.09
2018-09-12T00:04:43.691Z,101224.08
2018-09-12T00:07:13.721Z,101218.88
2018-09-12T00:09:43.670Z,101224.34
2018-09-12T00:12:13.220Z,101222.06
2018-09-12T00:14:43.625Z,101217.70
2018-09-12T00:17:13.225Z,101217.10
2018-09-12T00:19:43.641Z,101213.59
2018-09-12T00:22:13.331Z,101209.27
2018-09-12T00:24:43.708Z,101208.17
2018-09-12T00:27:13.298Z,101202.96
2018-09-12T00:29:43.663Z,101198.97
2018-09-12T00:32:13.284Z,101199.48
2018-09-12T00:34:43.933Z,101196.45
2018-09-12T00:37:13.484Z,101198.27
2018-09-12T00:39:43.854Z,101198.16
2018-09-12T00:42:13.786Z,101197.92
2018-09-12T00:44:43.685Z,101201.91
2018-09-12T00:47:13.332Z,101201.54
2018-09-12T00:49:43.695Z,101195.85
2018-09-12T00:52:13.477Z,101191.63
2018-09-12T00:54:43.872Z,101185.85
2018-09-12T00:57:13.526Z,101192.87
2018-09-12T00:59:43.771Z,101190.22
2018-09-12T01:02:13.454Z,101180.18
2018-09-12T01:04:44.155Z,101178.03
2018-09-12T01:07:14.117Z,101184.91
2018-09-12T01:09:43.824Z,101182.73
2018-09-12T01:12:13.399Z,101179.45
2018-09-12T01:14:43.841Z,101177.42
2018-09-12T01:17:13.509Z,101178.28
2018-09-12T01:19:45.991Z,101168.38
2018-09-12T01:22:15.905Z,101171.51
2018-09-12T01:24:45.591Z,101174.64
2018-09-12T01:27:14.985Z,101171.72
2018-09-12T01:29:44.734Z,101174.64
2018-09-12T01:32:14.365Z,101175.84
2018-09-12T01:34:43.866Z,101166.78
2018-09-12T01:37:13.612Z,101173.80
2018-09-12T01:39:44.005Z,101173.06
2018-09-12T01:42:13.535Z,101171.50
2018-09-12T01:44:43.995Z,101169.83
2018-09-12T01:49:36.918Z,101161.86
2018-09-12T01:52:06.681Z,101155.56
2018-09-12T01:54:36.114Z,101159.55
2018-09-12T01:57:05.874Z,101157.28
2018-09-12T01:59:35.521Z,101156.91
2018-09-12T02:02:04.944Z,101155.09
2018-09-12T02:04:34.655Z,101148.83
2018-09-12T02:07:04.078Z,101149.41
2018-09-12T02:09:33.830Z,101145.70
2018-09-12T02:12:03.877Z,101152.10
2018-09-12T02:14:33.518Z,101152.82
2018-09-12T02:17:03.263Z,101146.80
2018-09-12T02:19:32.881Z,101148.47
2018-09-12T02:22:02.294Z,101146.80
2018-09-12T02:24:31.934Z,101147.75
2018-09-12T02:27:02.025Z,101151.59
2018-09-12T02:29:31.631Z,101153.78
2018-09-12T02:32:01.323Z,101149.31
2018-09-12T02:34:30.983Z,101136.19
2018-09-12T02:37:00.774Z,101141.36
2018-09-12T02:39:30.200Z,101138.47
2018-09-12T02:41:59.859Z,101130.50
2018-09-12T02:44:29.591Z,101133.88
2018-09-12T02:46:59.358Z,101134.25
2018-09-12T02:49:28.898Z,101132.31
2018-09-12T02:51:58.601Z,101140.17
2018-09-12T02:54:28.230Z,101140.75
2018-09-12T02:56:57.712Z,101139.56
2018-09-12T02:59:27.102Z,101136.05
2018-09-12T03:01:57.398Z,101134.97
2018-09-12T03:04:49.424Z,101124.96
2018-09-12T03:07:19.010Z,101126.42
2018-09-12T03:12:45.854Z,101122.92
2018-09-12T03:15:15.232Z,101116.77
2018-09-12T03:17:44.994Z,101114.34
2018-09-12T03:20:14.739Z,101107.09
2018-09-12T03:22:44.197Z,101109.66
2018-09-12T03:25:13.601Z,101103.49
2018-09-12T03:27:44.237Z,101097.70
2018-09-12T03:30:13.783Z,101094.31
2018-09-12T03:32:44.230Z,101095.77
2018-09-12T03:35:13.836Z,101098.05
2018-09-12T03:37:44.219Z,101093.12
2018-09-12T03:40:13.934Z,101088.53
2018-09-12T03:42:44.296Z,101094.20
2018-09-12T03:45:13.928Z,101096.72
2018-09-12T03:47:44.312Z,101095.02
2018-09-12T03:50:13.877Z,101063.55
2018-09-12T03:52:44.325Z,101101.76
2018-09-12T03:55:14.072Z,101092.98
2018-09-12T03:57:44.444Z,101087.30
2018-09-12T04:00:13.991Z,101090.19
2018-09-12T04:02:44.306Z,101091.14
2018-09-12T04:05:14.047Z,101094.53
2018-09-12T04:07:44.440Z,101096.20
2018-09-12T04:10:14.116Z,101097.05
2018-09-12T04:12:44.418Z,101098.27
2018-09-12T04:15:13.982Z,101097.17
2018-09-12T04:17:44.253Z,101095.61
2018-09-12T04:20:13.910Z,101093.91
2018-09-12T04:22:44.267Z,101092.48
2018-09-12T04:25:13.806Z,101100.77
2018-09-12T04:27:44.404Z,101102.22
2018-09-12T04:30:13.989Z,101092.19
2018-09-12T04:32:44.451Z,101094.84
2018-09-12T04:35:14.042Z,101088.58
2018-09-12T04:37:44.498Z,101094.59
2018-09-12T04:40:14.235Z,101089.43
2018-09-12T04:42:44.549Z,101101.49
2018-09-12T04:45:14.616Z,101097.13
2018-09-12T04:47:44.471Z,101098.45
2018-09-12T04:50:14.067Z,101099.55
2018-09-12T04:52:44.439Z,101103.51
2018-09-12T04:55:14.173Z,101113.88
2018-09-12T04:57:44.638Z,101117.25
2018-09-12T05:00:14.915Z,101121.09
2018-09-12T05:02:45.693Z,101121.95
2018-09-12T05:05:15.229Z,101124.60
2018-09-12T05:07:44.732Z,101128.82
2018-09-12T05:10:14.383Z,101125.58
2018-09-12T05:12:44.690Z,101129.42
2018-09-12T05:15:14.433Z,101123.50
2018-09-12T05:17:44.510Z,101121.46
2018-09-12T05:20:14.254Z,101122.16
2018-09-12T05:22:44.546Z,101120.12
2018-09-12T05:25:14.293Z,101121.91
2018-09-12T05:27:44.689Z,101120.59
2018-09-12T05:30:14.364Z,101121.44
2018-09-12T05:32:44.513Z,101121.57
2018-09-12T05:35:14.144Z,101121.69
2018-09-12T05:37:44.554Z,101127.37
2018-09-12T05:40:14.025Z,101134.72
2018-09-12T05:42:44.834Z,101127.98
2018-09-12T05:45:14.426Z,101128.23
2018-09-12T05:47:44.609Z,101126.77
2018-09-12T05:50:14.374Z,101128.23
2018-09-12T05:52:44.854Z,101137.52
2018-09-12T05:55:14.358Z,101137.38
2018-09-12T05:57:44.709Z,101148.23
2018-09-12T06:00:14.336Z,101134.25
2018-09-12T06:02:44.510Z,101138.61
2018-09-12T06:05:14.552Z,101144.16
2018-09-12T06:07:44.662Z,101141.61
2018-09-12T06:10:14.413Z,101141.61
2018-09-12T06:12:44.699Z,101140.42
2018-09-12T06:15:14.322Z,101134.14
2018-09-12T06:17:44.730Z,101134.89
2018-09-12T06:20:14.286Z,101139.21
2018-09-12T06:22:44.637Z,101139.45
2018-09-12T06:25:14.418Z,101131.41
2018-09-12T06:27:44.698Z,101137.05
2018-09-12T06:30:14.275Z,101135.61
2018-09-12T06:32:44.741Z,101138.49
2018-09-12T06:35:14.338Z,101137.18
2018-09-12T06:37:44.752Z,101137.67
2018-09-12T06:40:14.491Z,101142.61
2018-09-12T06:42:44.871Z,101144.78
2018-09-12T06:45:14.396Z,101147.92
2018-09-12T06:47:44.815Z,101147.45
2018-09-12T06:50:14.478Z,101156.61
2018-09-12T06:52:44.860Z,101157.57
2018-09-12T06:55:14.611Z,101162.73
2018-09-12T06:57:44.846Z,101159.50
2018-09-12T07:00:14.754Z,101169.87
2018-09-12T07:02:44.802Z,101170.20
2018-09-12T07:05:14.492Z,101170.96
2018-09-12T07:07:44.895Z,101173.25
2018-09-12T07:10:14.639Z,101163.38
2018-09-12T07:12:45.158Z,101171.24
2018-09-12T07:15:14.848Z,101169.58
2018-09-12T07:17:44.718Z,101170.77
2018-09-12T07:20:14.418Z,101162.11
2018-09-12T07:22:45.176Z,101171.16
2018-09-12T07:25:14.924Z,101176.47
2018-09-12T07:27:45.027Z,101179.37
2018-09-12T07:30:14.579Z,101175.50
2018-09-12T07:32:44.756Z,101179.13
2018-09-12T07:35:14.861Z,101171.98
2018-09-12T07:37:44.962Z,101170.30
2018-09-12T07:40:14.715Z,101162.51
2018-09-12T07:42:44.870Z,101180.34
2018-09-12T07:45:14.458Z,101177.14
2018-09-12T07:47:44.952Z,101187.45
2018-09-12T07:50:14.698Z,101176.98
2018-09-12T07:52:45.241Z,101182.72
2018-09-12T07:55:14.961Z,101183.13
2018-09-12T07:57:44.996Z,101181.11
2018-09-12T08:00:14.958Z,101186.83
2018-09-12T08:02:45.216Z,101181.26
2018-09-12T08:05:14.958Z,101192.60
2018-09-12T08:07:44.931Z,101185.70
2018-09-12T08:10:15.015Z,101190.03
2018-09-12T08:12:45.136Z,101185.19
2018-09-12T08:15:14.697Z,101185.30
2018-09-12T08:17:44.941Z,101182.91
2018-09-12T08:20:14.651Z,101182.02
2018-09-12T08:22:45.032Z,101188.48
2018-09-12T08:25:14.665Z,101189.97
2018-09-12T08:27:45.575Z,101184.93
2018-09-12T08:30:15.174Z,101189.23
2018-09-12T08:32:44.988Z,101192.11
2018-09-12T08:35:17.279Z,101179.73
2018-09-12T08:37:47.303Z,101181.56
2018-09-12T08:40:16.933Z,101179.52
2018-09-12T08:42:46.680Z,101172.83
2018-09-12T08:45:16.089Z,101166.92
2018-09-12T08:47:45.837Z,101171.94
2018-09-12T08:50:15.952Z,101173.27
2018-09-12T08:52:46.442Z,101175.87
2018-09-12T08:55:16.046Z,101176.20
2018-09-12T08:57:45.799Z,101168.45
2018-09-12T09:00:15.747Z,101172.25
2018-09-12T09:02:45.309Z,101166.16
2018-09-12T09:05:14.841Z,101161.52
2018-09-12T09:07:45.225Z,101157.73
2018-09-12T09:10:15.119Z,101157.25
2018-09-12T09:12:45.269Z,101149.25
2018-09-12T09:15:14.848Z,101153.84
2018-09-12T09:17:45.102Z,101155.91
2018-09-12T09:20:14.746Z,101150.41
2018-09-12T09:22:44.825Z,101157.17
2018-09-12T09:25:14.305Z,101154.36
2018-09-12T09:27:45.697Z,101159.02
2018-09-12T09:30:15.123Z,101146.73
2018-09-12T09:32:45.092Z,101148.13
2018-09-12T09:35:14.862Z,101154.86
2018-09-12T09:37:45.460Z,101157.08
2018-09-12T09:40:15.117Z,101161.92
2018-09-12T09:42:45.260Z,101149.50
2018-09-12T09:45:14.991Z,101151.03
2018-09-12T09:47:45.121Z,101156.10
2018-09-12T09:50:15.498Z,101158.40
2018-09-12T09:52:45.195Z,101154.16
2018-09-12T09:55:14.789Z,101160.00
2018-09-12T09:57:45.259Z,101154.30
2018-09-12T10:00:20.203Z,101157.12
2018-09-12T10:02:55.374Z,101157.20
2018-09-12T10:05:25.401Z,101150.43
2018-09-12T10:08:00.378Z,101150.25
2018-09-12T10:10:29.995Z,101150.34
2018-09-12T10:12:59.835Z,101146.33
2018-09-12T10:15:29.379Z,101154.06
2018-09-12T10:17:58.924Z,101157.39
2018-09-12T10:20:28.339Z,101159.45
2018-09-12T10:22:58.332Z,101160.29
2018-09-12T10:25:28.094Z,101165.34
2018-09-12T10:27:57.493Z,101167.84
2018-09-12T10:30:27.146Z,101164.87
2018-09-12T10:32:57.390Z,101165.61
2018-09-12T10:35:26.978Z,101165.44
2018-09-12T10:37:56.640Z,101166.41
2018-09-12T10:40:26.353Z,101158.42
2018-09-12T10:42:56.145Z,101159.34
2018-09-12T10:45:25.861Z,101164.20
2018-09-12T10:47:55.611Z,101165.36
2018-09-12T10:50:25.299Z,101164.85
2018-09-12T10:52:55.295Z,101159.87
2018-09-12T10:55:24.793Z,101156.84
2018-09-12T10:57:54.609Z,101157.95
2018-09-12T11:00:24.284Z,101164.22
2018-09-12T11:02:54.040Z,101163.38
2018-09-12T11:05:23.463Z,101159.90
2018-09-12T11:07:53.349Z,101152.61
2018-09-12T11:10:22.872Z,101156.23
2018-09-12T11:12:52.588Z,101156.67
2018-09-12T11:15:22.267Z,101156.72
2018-09-12T11:17:52.099Z,101148.64
2018-09-12T11:20:21.579Z,101150.30
2018-09-12T11:22:51.412Z,101148.06
2018-09-12T11:25:21.321Z,101153.88
2018-09-12T11:27:50.780Z,101151.12
2018-09-12T11:30:20.372Z,101156.72
2018-09-12T11:32:50.250Z,101158.86
2018-09-12T11:35:20.725Z,101153.42
2018-09-12T11:37:50.425Z,101152.09
2018-09-12T11:40:20.445Z,101150.48
2018-09-12T11:42:49.902Z,101158.98
2018-09-12T11:45:19.512Z,101156.59
2018-09-12T11:47:49.445Z,101166.86
2018-09-12T11:50:19.238Z,101163.45
2018-09-12T11:52:48.971Z,101165.75
2018-09-12T11:55:18.427Z,101160.97
2018-09-12T11:57:48.263Z,101158.70
2018-09-12T12:00:17.786Z,101167.22
2018-09-12T12:02:47.830Z,101175.73
2018-09-12T12:05:17.382Z,101172.19
2018-09-12T12:07:47.131Z,101171.56
2018-09-12T12:10:16.543Z,101180.45
2018-09-12T12:12:46.387Z,101175.50
2018-09-12T12:15:15.875Z,101175.23
2018-09-12T12:17:45.604Z,101177.47
2018-09-12T12:20:15.193Z,101181.28
2018-09-12T12:22:45.595Z,101183.85
2018-09-12T12:25:15.067Z,101195.83
2018-09-12T12:27:45.750Z,101185.76
2018-09-12T12:30:15.345Z,101188.14
2018-09-12T12:32:45.663Z,101197.41
2018-09-12T12:35:15.487Z,101211.16
2018-09-12T12:37:46.176Z,101212.48
2018-09-12T12:40:15.810Z,101219.30
2018-09-12T12:42:46.628Z,101216.75
2018-09-12T12:45:16.421Z,101223.00
2018-09-12T12:47:45.889Z,101235.69
2018-09-12T12:50:15.444Z,101227.57
2018-09-12T12:52:46.038Z,101234.50
2018-09-12T12:55:15.679Z,101225.41
2018-09-12T12:57:45.848Z,101240.67
2018-09-12T13:00:15.457Z,101237.20
2018-09-12T13:02:45.741Z,101241.09
2018-09-12T13:05:15.439Z,101250.80
2018-09-12T13:07:45.744Z,101244.75
2018-09-12T13:10:15.530Z,101245.60
2018-09-12T13:12:46.056Z,101246.56
2018-09-12T13:15:15.689Z,101249.98
2018-09-12T13:17:45.811Z,101259.52
2018-09-12T13:20:15.792Z,101255.52
2018-09-12T13:22:45.928Z,101259.27
2018-09-12T13:25:15.469Z,101264.31
2018-09-12T13:27:46.459Z,101261.82
2018-09-12T13:30:16.197Z,101254.47
2018-09-12T13:32:46.230Z,101262.06
2018-09-12T13:35:15.899Z,101256.03
2018-09-12T13:37:45.900Z,101255.41
2018-09-12T13:40:15.685Z,101261.34
2018-09-12T13:42:46.063Z,101257.72
2018-09-12T13:45:15.937Z,101279.43
2018-09-12T13:47:45.982Z,101284.70
2018-09-12T13:50:16.469Z,101295.78
2018-09-12T13:52:47.382Z,101299.31
2018-09-12T13:55:16.942Z,101308.50
2018-09-12T13:57:46.802Z,101302.83
2018-09-12T14:00:16.286Z,101308.61
2018-09-12T14:02:46.101Z,101320.43
2018-09-12T14:05:16.111Z,101323.67
2018-09-12T14:07:45.985Z,101330.14
2018-09-12T14:10:15.784Z,101326.11
2018-09-12T14:12:46.021Z,101325.84
2018-09-12T14:15:15.794Z,101331.89
2018-09-12T14:17:46.081Z,101334.92
2018-09-12T14:20:15.907Z,101333.48
2018-09-12T14:22:46.744Z,101336.19
2018-09-12T14:25:16.554Z,101333.60
2018-09-12T14:27:46.311Z,101340.86
2018-09-12T14:30:15.869Z,101343.81
2018-09-12T14:32:45.957Z,101354.46
2018-09-12T14:35:15.700Z,101351.84
2018-09-12T14:37:46.198Z,101350.20
2018-09-12T14:40:15.900Z,101354.00
2018-09-12T14:42:46.260Z,101357.71
2018-09-12T14:45:15.988Z,101349.94
2018-09-12T14:47:46.109Z,101352.85
2018-09-12T14:50:15.851Z,101361.84
2018-09-12T14:52:46.448Z,101360.67
2018-09-12T14:55:16.086Z,101360.53
2018-09-12T14:57:46.329Z,101353.08
2018-09-12T15:00:33.029Z,101366.48
2018-09-12T15:03:02.719Z,101371.17
2018-09-12T15:05:32.221Z,101367.75
2018-09-12T15:08:01.887Z,101371.85
2018-09-12T15:10:31.471Z,101365.04
2018-09-12T15:13:01.378Z,101377.95
2018-09-12T15:15:30.935Z,101377.85
2018-09-12T15:18:00.739Z,101376.73
2018-09-12T15:20:30.286Z,101382.51
2018-09-12T15:22:59.811Z,101382.56
2018-09-12T15:25:29.308Z,101379.38
2018-09-12T15:27:59.342Z,101385.39
2018-09-12T15:30:29.159Z,101394.45
2018-09-12T15:32:58.996Z,101389.76
2018-09-12T15:35:28.492Z,101396.75
2018-09-12T15:37:58.221Z,101391.17
2018-09-12T15:40:28.107Z,101401.24
2018-09-12T15:42:57.846Z,101391.17
2018-09-12T15:45:27.351Z,101390.12
2018-09-12T15:47:57.677Z,101384.28
2018-09-12T15:50:27.241Z,101394.00
2018-09-12T15:52:57.277Z,101395.03
2018-09-12T15:55:26.732Z,101394.17
2018-09-12T15:57:56.374Z,101384.07
2018-09-12T16:00:26.033Z,101384.46
2018-09-12T16:02:55.797Z,101380.69
2018-09-12T16:05:25.364Z,101382.66
2018-09-12T16:07:54.965Z,101372.77
2018-09-12T16:10:24.373Z,101383.89
2018-09-12T16:12:54.056Z,101389.67
2018-09-12T16:15:23.899Z,101388.05
2018-09-12T16:17:53.737Z,101386.45
2018-09-12T16:20:23.168Z,101380.70
2018-09-12T16:22:53.035Z,101386.92
2018-09-12T16:25:22.678Z,101394.27
2018-09-12T16:27:52.338Z,101390.69
2018-09-12T16:30:22.045Z,101402.31
2018-09-12T16:32:52.011Z,101403.70
2018-09-12T16:35:21.704Z,101404.45
2018-09-12T16:37:51.486Z,101407.83
2018-09-12T16:40:21.249Z,101406.52
2018-09-12T16:42:51.487Z,101390.97
2018-09-12T16:45:21.086Z,101396.42
2018-09-12T16:47:51.025Z,101397.84
2018-09-12T16:50:20.495Z,101410.77
2018-09-12T16:52:50.111Z,101411.97
2018-09-12T16:55:19.579Z,101411.41
2018-09-12T16:57:49.287Z,101410.84
2018-09-12T17:00:18.851Z,101407.52
2018-09-12T17:02:48.429Z,101409.05
2018-09-12T17:05:18.475Z,101405.92
2018-09-12T17:07:48.447Z,101399.03
2018-09-12T17:10:17.954Z,101404.99
2018-09-12T17:12:47.912Z,101406.09
2018-09-12T17:15:17.569Z,101405.88
2018-09-12T17:17:47.255Z,101407.55
2018-09-12T17:20:16.741Z,101417.17
2018-09-12T17:22:46.516Z,101417.74
2018-09-12T17:25:16.042Z,101428.94
2018-09-12T17:27:46.723Z,101426.76
2018-09-12T17:30:16.322Z,101425.37
2018-09-12T17:32:46.728Z,101432.50
2018-09-12T17:35:16.539Z,101434.80
2018-09-12T17:37:46.726Z,101437.78
2018-09-12T17:40:16.318Z,101432.39
2018-09-12T17:42:46.713Z,101428.03
2018-09-12T17:45:16.301Z,101443.81
2018-09-12T17:47:46.736Z,101440.64
2018-09-12T17:50:16.323Z,101434.34
2018-09-12T17:52:46.682Z,101437.14
2018-09-12T17:55:16.350Z,101442.31
2018-09-12T17:57:46.849Z,101428.09
2018-09-12T18:00:16.445Z,101421.08
2018-09-12T18:02:46.623Z,101426.40
2018-09-12T18:05:16.215Z,101420.16
2018-09-12T18:07:46.755Z,101420.22
2018-09-12T18:10:16.487Z,101422.39
2018-09-12T18:12:46.899Z,101423.37
2018-09-12T18:15:16.435Z,101418.48
2018-09-12T18:17:46.798Z,101423.09
2018-09-12T18:20:16.360Z,101422.80
2018-09-12T18:22:46.843Z,101418.20
2018-09-12T18:25:16.525Z,101411.51
2018-09-12T18:27:46.954Z,101415.11
2018-09-12T18:30:16.700Z,101410.58
2018-09-12T18:32:46.682Z,101419.17
2018-09-12T18:35:16.477Z,101415.58
2018-09-12T18:37:46.838Z,101414.37
2018-09-12T18:40:16.566Z,101413.91
2018-09-12T18:42:47.065Z,101409.55
2018-09-12T18:45:16.713Z,101412.69
2018-09-12T18:47:46.827Z,101416.25
2018-09-12T18:50:16.969Z,101418.89
2018-09-12T18:52:46.935Z,101410.05
2018-09-12T18:55:16.546Z,101405.13
2018-09-12T18:57:47.035Z,101405.91
2018-09-12T19:00:16.645Z,101409.55
2018-09-12T19:02:46.843Z,101412.59
2018-09-12T19:05:16.551Z,101422.75
2018-09-12T19:07:46.993Z,101422.06
2018-09-12T19:10:16.684Z,101435.35
2018-09-12T19:12:47.458Z,101427.72
2018-09-12T19:15:17.494Z,101432.89
2018-09-12T19:17:47.038Z,101438.06
2018-09-12T19:20:16.665Z,101427.61
2018-09-12T19:22:47.103Z,101438.35
2018-09-12T19:25:16.733Z,101439.59
2018-09-12T19:27:47.006Z,101441.31
2018-09-12T19:30:16.770Z,101440.93
2018-09-12T19:32:49.987Z,101444.42
2018-09-12T19:35:21.654Z,101432.08
2018-09-12T19:37:53.067Z,101434.50
2018-09-12T19:40:24.028Z,101429.52
2018-09-12T19:42:56.225Z,101436.39
2018-09-12T19:45:26.969Z,101416.27
2018-09-12T19:47:57.248Z,101428.08
2018-09-12T19:50:27.146Z,101433.93
2018-09-12T19:52:57.430Z,101427.52
2018-09-12T19:55:29.572Z,101428.54
2018-09-12T19:58:03.250Z,101437.70
2018-09-12T20:00:35.489Z,101444.81
2018-09-12T20:03:09.665Z,101450.63
2018-09-12T20:05:39.908Z,101445.23
2018-09-12T20:08:09.611Z,101445.91
2018-09-12T20:10:39.334Z,101443.78
2018-09-12T20:13:08.876Z,101432.02
2018-09-12T20:15:38.783Z,101436.63
2018-09-12T20:18:08.552Z,101437.19
2018-09-12T20:20:41.975Z,101440.39
2018-09-12T20:23:13.855Z,101440.14
2018-09-12T20:25:47.245Z,101429.30
2018-09-12T20:28:20.367Z,101434.73
2018-09-12T20:30:53.281Z,101436.27
2018-09-12T20:33:26.777Z,101440.52
2018-09-12T20:35:57.589Z,101435.12
2018-09-12T20:38:30.530Z,101436.16
2018-09-12T20:41:03.719Z,101435.80
2018-09-12T20:43:36.917Z,101436.58
2018-09-12T20:46:09.842Z,101431.92
2018-09-12T20:48:43.199Z,101433.75
2018-09-12T20:51:15.635Z,101435.63
2018-09-12T20:53:49.915Z,101435.53
2018-09-12T20:56:23.101Z,101442.52
2018-09-12T20:58:56.442Z,101436.05
2018-09-12T21:01:29.989Z,101433.70
2018-09-12T21:04:03.340Z,101429.87
2018-09-12T21:06:36.969Z,101433.26
2018-09-12T21:09:14.633Z,101427.52
2018-09-12T21:11:47.497Z,101427.28
2018-09-12T21:14:20.133Z,101418.69
2018-09-12T21:16:53.814Z,101419.54
2018-09-12T21:19:27.047Z,101409.92
2018-09-12T21:22:01.579Z,101415.63
2018-09-12T21:24:33.113Z,101417.34
2018-09-12T21:27:07.015Z,101413.97
2018-09-12T21:29:38.755Z,101417.83
2018-09-12T21:32:12.121Z,101415.09
2018-09-12T21:34:44.252Z,101416.12
2018-09-12T21:37:15.862Z,101414.97
2018-09-12T21:39:51.181Z,101421.20
2018-09-12T21:42:22.340Z,101415.53
2018-09-12T21:44:52.154Z,101419.03
2018-09-12T21:47:24.801Z,101422.06
2018-09-12T21:49:58.101Z,101407.84
2018-09-12T21:52:31.300Z,101417.14
2018-09-12T21:55:04.265Z,101425.72
2018-09-12T21:57:37.417Z,101429.75
2018-09-12T22:00:10.378Z,101420.91
2018-09-12T22:02:43.851Z,101412.71
2018-09-12T22:05:16.508Z,101408.83
2018-09-12T22:07:50.459Z,101422.64
2018-09-12T22:10:23.506Z,101420.57
2018-09-12T22:12:56.668Z,101423.94
2018-09-12T22:15:30.080Z,101416.30
2018-09-12T22:18:03.029Z,101420.49
2018-09-12T22:20:36.268Z,101419.17
2018-09-12T22:23:09.806Z,101428.61
2018-09-12T22:25:42.312Z,101429.13
2018-09-12T22:28:12.198Z,101428.11
2018-09-12T22:30:44.183Z,101428.28
2018-09-12T22:33:13.623Z,101422.94
2018-09-12T22:35:43.200Z,101419.32
2018-09-12T22:38:12.649Z,101422.45
2018-09-12T22:40:42.179Z,101416.98
2018-09-12T22:43:11.617Z,101417.55
2018-09-12T22:45:41.325Z,101422.03
2018-09-12T22:48:11.094Z,101420.58
2018-09-12T22:50:40.952Z,101425.85
2018-09-12T22:53:10.744Z,101430.66
2018-09-12T22:55:40.446Z,101433.69
2018-09-12T22:58:10.286Z,101431.81
2018-09-12T23:00:39.764Z,101422.30
2018-09-12T23:03:09.170Z,101421.27
2018-09-12T23:05:38.724Z,101423.05
2018-09-12T23:08:08.292Z,101418.17
2018-09-12T23:10:37.796Z,101416.56
2018-09-12T23:13:07.437Z,101415.88
2018-09-12T23:15:37.488Z,101429.73
2018-09-12T23:18:07.255Z,101431.81
2018-09-12T23:20:36.668Z,101425.45
2018-09-12T23:23:06.690Z,101421.11
2018-09-12T23:25:38.009Z,101420.52
2018-09-12T23:28:07.554Z,101415.51
2018-09-12T23:30:37.199Z,101412.94
2018-09-12T23:33:06.880Z,101411.79
2018-09-12T23:35:36.602Z,101411.03
2018-09-12T23:38:06.781Z,101417.45
2018-09-12T23:40:36.498Z,101406.52
2018-09-12T23:43:06.162Z,101406.29
2018-09-12T23:45:35.670Z,101407.11
2018-09-12T23:48:05.325Z,101409.84
2018-09-12T23:50:34.768Z,101417.29
2018-09-12T23:53:04.507Z,101417.45
2018-09-12T23:55:34.006Z,101421.17
2018-09-12T23:58:03.596Z,101418.23
